Terminal Aerodrome Forecast
Issued by NWS

Home | Current Version | Previous Version | Text Only | Print | Product List | Glossary On
Versions: 1 2 3 4 5 6 7 8 9 10 11 12 13 14 15 16 17
000
FTUS42 KMLB 210500 RRA
TAFLEE
TAF
KLEE 210543Z 2106/2206 35005KT P6SM BKN250
     FM211400 03004KT P6SM FEW025 BKN250
     FM211800 14004KT P6SM SCT030 BKN120
     FM220100 18003KT P6SM FEW035 BKN150=

USA.gov is the U.S. government's official web portal to all federal, state and local government web resources and services.